sensor_id;sensor_type;location;lat;lon;timestamp;pressure;altitude;pressure_sealevel;temperature;humidity
59053;BME280;44843;44.728;10.396;2023-05-18T00:00:10;100567.00;;;15.70;100.00
59053;BME280;44843;44.728;10.396;2023-05-18T00:02:39;100568.81;;;15.80;100.00
59053;BME280;44843;44.728;10.396;2023-05-18T00:05:05;100565.97;;;15.83;100.00
59053;BME280;44843;44.728;10.396;2023-05-18T00:07:30;100564.53;;;15.91;100.00
59053;BME280;44843;44.728;10.396;2023-05-18T00:09:57;100566.91;;;15.94;100.00
59053;BME280;44843;44.728;10.396;2023-05-18T00:12:23;100567.63;;;15.96;100.00
59053;BME280;44843;44.728;10.396;2023-05-18T00:14:48;100568.97;;;16.01;100.00
59053;BME280;44843;44.728;10.396;2023-05-18T00:17:13;100563.09;;;15.98;100.00
59053;BME280;44843;44.728;10.396;2023-05-18T00:19:40;100565.00;;;15.96;100.00
59053;BME280;44843;44.728;10.396;2023-05-18T00:22:05;100563.94;;;15.87;100.00
59053;BME280;44843;44.728;10.396;2023-05-18T00:24:31;100572.31;;;15.81;100.00
59053;BME280;44843;44.728;10.396;2023-05-18T00:26:57;100572.78;;;15.75;100.00
59053;BME280;44843;44.728;10.396;2023-05-18T00:29:22;100573.94;;;15.71;100.00
59053;BME280;44843;44.728;10.396;2023-05-18T00:31:47;100577.22;;;15.74;100.00
59053;BME280;44843;44.728;10.396;2023-05-18T00:34:13;100578.59;;;15.67;100.00
59053;BME280;44843;44.728;10.396;2023-05-18T00:36:39;100566.56;;;15.76;100.00
59053;BME280;44843;44.728;10.396;2023-05-18T00:39:04;100574.16;;;15.68;100.00
59053;BME280;44843;44.728;10.396;2023-05-18T00:41:30;100576.56;;;15.71;100.00
59053;BME280;44843;44.728;10.396;2023-05-18T00:43:56;100580.13;;;15.70;100.00
59053;BME280;44843;44.728;10.396;2023-05-18T00:46:22;100580.50;;;15.65;100.00
59053;BME280;44843;44.728;10.396;2023-05-18T00:48:47;100583.38;;;15.62;100.00
59053;BME280;44843;44.728;10.396;2023-05-18T00:51:13;100579.00;;;15.38;100.00
59053;BME280;44843;44.728;10.396;2023-05-18T00:53:38;100579.78;;;15.63;100.00
59053;BME280;44843;44.728;10.396;2023-05-18T00:56:04;100585.63;;;15.66;100.00
59053;BME280;44843;44.728;10.396;2023-05-18T00:58:30;100585.53;;;15.68;100.00
59053;BME280;44843;44.728;10.396;2023-05-18T01:00:55;100580.53;;;15.76;100.00
59053;BME280;44843;44.728;10.396;2023-05-18T01:03:21;100576.50;;;15.83;100.00
59053;BME280;44843;44.728;10.396;2023-05-18T01:05:46;100576.72;;;15.92;100.00
59053;BME280;44843;44.728;10.396;2023-05-18T01:08:20;100577.09;;;15.98;100.00
59053;BME280;44843;44.728;10.396;2023-05-18T01:10:45;100571.00;;;15.86;100.00
59053;BME280;44843;44.728;10.396;2023-05-18T01:13:18;100568.81;;;15.80;100.00
59053;BME280;44843;44.728;10.396;2023-05-18T01:15:47;100571.94;;;15.74;100.00
59053;BME280;44843;44.728;10.396;2023-05-18T01:28:19;100568.28;;;15.41;100.00
59053;BME280;44843;44.728;10.396;2023-05-18T01:30:45;100573.28;;;15.44;100.00
59053;BME280;44843;44.728;10.396;2023-05-18T01:33:12;100566.13;;;15.47;100.00
59053;BME280;44843;44.728;10.396;2023-05-18T01:35:37;100567.22;;;15.44;100.00
59053;BME280;44843;44.728;10.396;2023-05-18T01:38:05;100571.88;;;15.52;100.00
59053;BME280;44843;44.728;10.396;2023-05-18T01:40:32;100570.78;;;15.43;100.00
59053;BME280;44843;44.728;10.396;2023-05-18T01:42:59;100567.88;;;15.35;100.00
59053;BME280;44843;44.728;10.396;2023-05-18T01:45:27;100558.81;;;15.39;100.00
59053;BME280;44843;44.728;10.396;2023-05-18T01:47:55;100566.50;;;15.42;100.00
59053;BME280;44843;44.728;10.396;2023-05-18T01:50:26;100551.78;;;15.39;100.00
59053;BME280;44843;44.728;10.396;2023-05-18T01:52:57;100563.34;;;15.37;100.00
59053;BME280;44843;44.728;10.396;2023-05-18T01:55:24;100568.03;;;15.44;100.00
59053;BME280;44843;44.728;10.396;2023-05-18T01:57:51;100567.66;;;15.38;100.00
59053;BME280;44843;44.728;10.396;2023-05-18T02:00:18;100568.03;;;15.33;100.00
59053;BME280;44843;44.728;10.396;2023-05-18T02:02:44;100565.50;;;15.32;100.00
59053;BME280;44843;44.728;10.396;2023-05-18T02:05:09;100554.63;;;15.36;100.00
59053;BME280;44843;44.728;10.396;2023-05-18T02:07:38;100553.22;;;15.43;100.00
59053;BME280;44843;44.728;10.396;2023-05-18T02:10:04;100561.09;;;15.43;100.00
59053;BME280;44843;44.728;10.396;2023-05-18T02:12:30;100556.91;;;15.41;100.00
59053;BME280;44843;44.728;10.396;2023-05-18T02:14:55;100553.81;;;15.36;100.00
59053;BME280;44843;44.728;10.396;2023-05-18T02:17:22;100560.13;;;15.33;100.00
59053;BME280;44843;44.728;10.396;2023-05-18T02:19:50;100566.31;;;15.32;100.00
59053;BME280;44843;44.728;10.396;2023-05-18T02:22:15;100561.03;;;15.21;100.00
59053;BME280;44843;44.728;10.396;2023-05-18T02:24:40;100554.84;;;15.22;100.00
59053;BME280;44843;44.728;10.396;2023-05-18T02:27:05;100558.31;;;15.22;100.00
59053;BME280;44843;44.728;10.396;2023-05-18T02:29:30;100560.13;;;15.22;100.00
59053;BME280;44843;44.728;10.396;2023-05-18T02:31:56;100556.28;;;15.26;100.00
59053;BME280;44843;44.728;10.396;2023-05-18T02:34:21;100559.75;;;15.27;100.00
59053;BME280;44843;44.728;10.396;2023-05-18T02:36:48;100552.81;;;15.25;100.00
59053;BME280;44843;44.728;10.396;2023-05-18T02:39:13;100542.56;;;15.22;100.00
59053;BME280;44843;44.728;10.396;2023-05-18T02:41:39;100552.22;;;15.22;100.00
59053;BME280;44843;44.728;10.396;2023-05-18T02:44:04;100555.78;;;15.21;100.00
59053;BME280;44843;44.728;10.396;2023-05-18T02:46:30;100555.78;;;15.21;100.00
59053;BME280;44843;44.728;10.396;2023-05-18T02:48:56;100552.72;;;15.27;100.00
59053;BME280;44843;44.728;10.396;2023-05-18T02:51:21;100550.09;;;15.27;100.00
59053;BME280;44843;44.728;10.396;2023-05-18T02:53:47;100558.34;;;15.34;100.00
59053;BME280;44843;44.728;10.396;2023-05-18T02:56:12;100551.19;;;15.36;100.00
59053;BME280;44843;44.728;10.396;2023-05-18T02:58:37;100542.34;;;15.37;100.00
59053;BME280;44843;44.728;10.396;2023-05-18T03:01:03;100546.06;;;15.45;100.00
59053;BME280;44843;44.728;10.396;2023-05-18T03:03:32;100540.94;;;15.44;100.00
59053;BME280;44843;44.728;10.396;2023-05-18T03:05:58;100538.88;;;15.36;100.00
59053;BME280;44843;44.728;10.396;2023-05-18T03:08:24;100543.66;;;15.42;100.00
59053;BME280;44843;44.728;10.396;2023-05-18T03:10:51;100538.88;;;15.36;100.00
59053;BME280;44843;44.728;10.396;2023-05-18T03:13:16;100543.53;;;15.33;100.00
59053;BME280;44843;44.728;10.396;2023-05-18T03:15:42;100543.38;;;15.23;100.00
59053;BME280;44843;44.728;10.396;2023-05-18T03:18:09;100535.03;;;15.18;100.00
59053;BME280;44843;44.728;10.396;2023-05-18T03:20:35;100531.53;;;15.17;100.00
59053;BME280;44843;44.728;10.396;2023-05-18T03:23:02;100543.13;;;15.15;100.00
59053;BME280;44843;44.728;10.396;2023-05-18T03:25:27;100543.25;;;15.13;100.00
59053;BME280;44843;44.728;10.396;2023-05-18T03:27:53;100535.84;;;15.18;100.00
59053;BME280;44843;44.728;10.396;2023-05-18T03:30:18;100537.63;;;15.07;100.00
59053;BME280;44843;44.728;10.396;2023-05-18T03:32:45;100541.41;;;15.02;100.00
59053;BME280;44843;44.728;10.396;2023-05-18T03:35:11;100546.69;;;15.02;100.00
59053;BME280;44843;44.728;10.396;2023-05-18T03:37:36;100562.16;;;14.94;100.00
59053;BME280;44843;44.728;10.396;2023-05-18T03:40:07;100558.47;;;14.97;100.00
59053;BME280;44843;44.728;10.396;2023-05-18T03:42:34;100561.72;;;15.00;100.00
59053;BME280;44843;44.728;10.396;2023-05-18T03:44:59;100570.03;;;14.94;100.00
59053;BME280;44843;44.728;10.396;2023-05-18T03:47:24;100575.66;;;15.01;100.00
59053;BME280;44843;44.728;10.396;2023-05-18T03:49:50;100563.63;;;15.10;100.00
59053;BME280;44843;44.728;10.396;2023-05-18T03:52:15;100576.81;;;15.21;100.00
59053;BME280;44843;44.728;10.396;2023-05-18T03:54:46;100577.19;;;15.28;100.00
59053;BME280;44843;44.728;10.396;2023-05-18T03:57:11;100582.09;;;15.32;100.00
59053;BME280;44843;44.728;10.396;2023-05-18T03:59:36;100587.31;;;15.21;100.00
59053;BME280;44843;44.728;10.396;2023-05-18T04:02:02;100583.88;;;15.32;100.00
59053;BME280;44843;44.728;10.396;2023-05-18T04:04:27;100589.25;;;15.30;100.00
59053;BME280;44843;44.728;10.396;2023-05-18T04:06:52;100590.03;;;15.19;100.00
59053;BME280;44843;44.728;10.396;2023-05-18T04:09:17;100594.47;;;15.19;100.00
59053;BME280;44843;44.728;10.396;2023-05-18T04:11:43;100590.41;;;15.26;100.00
59053;BME280;44843;44.728;10.396;2023-05-18T04:14:09;100594.38;;;15.20;100.00
59053;BME280;44843;44.728;10.396;2023-05-18T04:16:35;100594.81;;;15.14;100.00
59053;BME280;44843;44.728;10.396;2023-05-18T04:19:00;100595.53;;;15.16;100.00
59053;BME280;44843;44.728;10.396;2023-05-18T04:21:27;100598.53;;;15.23;100.00
59053;BME280;44843;44.728;10.396;2023-05-18T04:23:59;100607.25;;;15.23;100.00
59053;BME280;44843;44.728;10.396;2023-05-18T04:26:27;100604.69;;;15.11;100.00
59053;BME280;44843;44.728;10.396;2023-05-18T04:28:52;100600.38;;;14.98;100.00
59053;BME280;44843;44.728;10.396;2023-05-18T04:31:24;100607.47;;;15.09;100.00
59053;BME280;44843;44.728;10.396;2023-05-18T04:33:50;100611.97;;;15.07;100.00
59053;BME280;44843;44.728;10.396;2023-05-18T04:36:16;100608.59;;;14.94;100.00
59053;BME280;44843;44.728;10.396;2023-05-18T04:38:43;100609.97;;;14.50;100.00
59053;BME280;44843;44.728;10.396;2023-05-18T04:41:09;100603.53;;;14.67;100.00
59053;BME280;44843;44.728;10.396;2023-05-18T04:43:34;100619.41;;;14.89;100.00
59053;BME280;44843;44.728;10.396;2023-05-18T04:46:00;100615.06;;;15.01;100.00
59053;BME280;44843;44.728;10.396;2023-05-18T04:48:25;100620.78;;;14.82;100.00
59053;BME280;44843;44.728;10.396;2023-05-18T04:50:51;100625.91;;;14.96;100.00
59053;BME280;44843;44.728;10.396;2023-05-18T04:53:18;100622.09;;;15.00;100.00
59053;BME280;44843;44.728;10.396;2023-05-18T04:55:44;100624.66;;;15.13;100.00
59053;BME280;44843;44.728;10.396;2023-05-18T04:58:10;100624.50;;;15.03;100.00
59053;BME280;44843;44.728;10.396;2023-05-18T05:00:36;100627.00;;;15.05;100.00
59053;BME280;44843;44.728;10.396;2023-05-18T05:03:01;100624.31;;;14.70;100.00
59053;BME280;44843;44.728;10.396;2023-05-18T05:05:27;100626.56;;;14.87;100.00
59053;BME280;44843;44.728;10.396;2023-05-18T05:07:53;100628.00;;;14.67;100.00
59053;BME280;44843;44.728;10.396;2023-05-18T05:10:19;100632.41;;;14.91;100.00
59053;BME280;44843;44.728;10.396;2023-05-18T05:12:45;100631.09;;;15.09;100.00
59053;BME280;44843;44.728;10.396;2023-05-18T05:15:10;100630.31;;;14.96;100.00
59053;BME280;44843;44.728;10.396;2023-05-18T05:17:36;100632.72;;;14.99;100.00
59053;BME280;44843;44.728;10.396;2023-05-18T05:20:01;100636.69;;;14.80;100.00
59053;BME280;44843;44.728;10.396;2023-05-18T05:22:26;100632.94;;;14.96;100.00
59053;BME280;44843;44.728;10.396;2023-05-18T05:24:51;100633.72;;;15.09;100.00
59053;BME280;44843;44.728;10.396;2023-05-18T05:27:17;100635.00;;;15.03;100.00
59053;BME280;44843;44.728;10.396;2023-05-18T05:29:44;100625.56;;;14.77;100.00
59053;BME280;44843;44.728;10.396;2023-05-18T05:32:10;100636.94;;;15.13;100.00
59053;BME280;44843;44.728;10.396;2023-05-18T05:34:36;100630.41;;;15.18;100.00
59053;BME280;44843;44.728;10.396;2023-05-18T05:37:02;100637.13;;;15.22;100.00
59053;BME280;44843;44.728;10.396;2023-05-18T05:39:27;100635.94;;;15.27;100.00
59053;BME280;44843;44.728;10.396;2023-05-18T05:41:52;100639.41;;;15.27;100.00
59053;BME280;44843;44.728;10.396;2023-05-18T05:44:17;100633.25;;;15.39;100.00
59053;BME280;44843;44.728;10.396;2023-05-18T05:46:43;100633.28;;;15.51;100.00
59053;BME280;44843;44.728;10.396;2023-05-18T05:49:08;100641.88;;;15.53;100.00
59053;BME280;44843;44.728;10.396;2023-05-18T05:51:33;100631.97;;;15.68;100.00
59053;BME280;44843;44.728;10.396;2023-05-18T05:53:58;100641.53;;;15.57;100.00
59053;BME280;44843;44.728;10.396;2023-05-18T05:56:24;100654.84;;;15.43;100.00
59053;BME280;44843;44.728;10.396;2023-05-18T05:58:50;100646.41;;;15.51;100.00
59053;BME280;44843;44.728;10.396;2023-05-18T06:01:15;100658.06;;;15.71;100.00
59053;BME280;44843;44.728;10.396;2023-05-18T06:03:41;100657.38;;;15.80;100.00
59053;BME280;44843;44.728;10.396;2023-05-18T06:06:06;100656.56;;;15.79;100.00
59053;BME280;44843;44.728;10.396;2023-05-18T06:08:32;100661.94;;;15.89;100.00
59053;BME280;44843;44.728;10.396;2023-05-18T06:10:57;100655.50;;;15.93;100.00
59053;BME280;44843;44.728;10.396;2023-05-18T06:13:22;100655.59;;;15.92;100.00
59053;BME280;44843;44.728;10.396;2023-05-18T06:15:48;100664.56;;;15.89;100.00
59053;BME280;44843;44.728;10.396;2023-05-18T06:18:13;100661.63;;;16.05;100.00
59053;BME280;44843;44.728;10.396;2023-05-18T06:20:38;100661.13;;;16.11;100.00
59053;BME280;44843;44.728;10.396;2023-05-18T06:23:03;100664.25;;;16.16;100.00
59053;BME280;44843;44.728;10.396;2023-05-18T06:25:29;100658.84;;;16.18;100.00
59053;BME280;44843;44.728;10.396;2023-05-18T06:27:54;100659.34;;;16.34;100.00
59053;BME280;44843;44.728;10.396;2023-05-18T06:30:20;100658.06;;;16.40;100.00
59053;BME280;44843;44.728;10.396;2023-05-18T06:32:45;100646.19;;;16.34;100.00
59053;BME280;44843;44.728;10.396;2023-05-18T06:35:11;100651.69;;;16.65;100.00
59053;BME280;44843;44.728;10.396;2023-05-18T06:37:37;100651.06;;;16.73;100.00
59053;BME280;44843;44.728;10.396;2023-05-18T06:40:02;100651.16;;;16.94;100.00
59053;BME280;44843;44.728;10.396;2023-05-18T06:42:28;100648.97;;;16.99;100.00
59053;BME280;44843;44.728;10.396;2023-05-18T06:44:54;100650.34;;;16.71;100.00
59053;BME280;44843;44.728;10.396;2023-05-18T06:47:19;100647.72;;;17.14;100.00
59053;BME280;44843;44.728;10.396;2023-05-18T06:49:44;100646.00;;;17.03;100.00
59053;BME280;44843;44.728;10.396;2023-05-18T06:52:10;100649.69;;;17.01;100.00
59053;BME280;44843;44.728;10.396;2023-05-18T06:54:35;100646.78;;;17.15;100.00
59053;BME280;44843;44.728;10.396;2023-05-18T06:57:01;100650.06;;;16.96;100.00
59053;BME280;44843;44.728;10.396;2023-05-18T06:59:26;100654.31;;;17.20;100.00
59053;BME280;44843;44.728;10.396;2023-05-18T07:01:51;100653.38;;;17.21;100.00
59053;BME280;44843;44.728;10.396;2023-05-18T07:04:17;100652.09;;;17.57;100.00
59053;BME280;44843;44.728;10.396;2023-05-18T07:06:43;100657.78;;;17.74;100.00
59053;BME280;44843;44.728;10.396;2023-05-18T07:09:08;100659.78;;;17.60;100.00
59053;BME280;44843;44.728;10.396;2023-05-18T07:11:34;100657.91;;;17.72;100.00
59053;BME280;44843;44.728;10.396;2023-05-18T07:13:59;100658.91;;;17.60;100.00
59053;BME280;44843;44.728;10.396;2023-05-18T07:16:25;100651.78;;;17.29;100.00
59053;BME280;44843;44.728;10.396;2023-05-18T07:18:50;100652.59;;;17.30;100.00
59053;BME280;44843;44.728;10.396;2023-05-18T07:21:15;100653.25;;;17.43;100.00
59053;BME280;44843;44.728;10.396;2023-05-18T07:23:40;100645.25;;;17.34;100.00
59053;BME280;44843;44.728;10.396;2023-05-18T07:26:06;100643.22;;;17.79;100.00
59053;BME280;44843;44.728;10.396;2023-05-18T07:28:33;100649.41;;;17.47;100.00
59053;BME280;44843;44.728;10.396;2023-05-18T07:30:59;100647.50;;;17.17;100.00
59053;BME280;44843;44.728;10.396;2023-05-18T07:33:24;100659.94;;;17.47;100.00
59053;BME280;44843;44.728;10.396;2023-05-18T07:35:49;100644.50;;;17.64;100.00
59053;BME280;44843;44.728;10.396;2023-05-18T07:38:14;100645.59;;;17.61;100.00
59053;BME280;44843;44.728;10.396;2023-05-18T07:40:40;100648.09;;;17.95;100.00
59053;BME280;44843;44.728;10.396;2023-05-18T07:43:05;100639.41;;;18.14;100.00
59053;BME280;44843;44.728;10.396;2023-05-18T07:45:30;100650.44;;;17.98;100.00
59053;BME280;44843;44.728;10.396;2023-05-18T07:47:56;100652.50;;;18.25;100.00
59053;BME280;44843;44.728;10.396;2023-05-18T07:50:21;100652.09;;;17.99;100.00
59053;BME280;44843;44.728;10.396;2023-05-18T07:52:47;100649.16;;;17.71;100.00
59053;BME280;44843;44.728;10.396;2023-05-18T07:55:12;100655.94;;;17.85;100.00
59053;BME280;44843;44.728;10.396;2023-05-18T07:57:38;100653.22;;;17.97;100.00
59053;BME280;44843;44.728;10.396;2023-05-18T08:00:03;100658.63;;;17.95;100.00
59053;BME280;44843;44.728;10.396;2023-05-18T08:02:30;100665.09;;;18.12;100.00
59053;BME280;44843;44.728;10.396;2023-05-18T08:04:56;100663.66;;;18.29;100.00
59053;BME280;44843;44.728;10.396;2023-05-18T08:07:21;100666.41;;;18.27;100.00
59053;BME280;44843;44.728;10.396;2023-05-18T08:09:50;100669.59;;;18.52;100.00
59053;BME280;44843;44.728;10.396;2023-05-18T08:12:15;100681.13;;;18.20;100.00
59053;BME280;44843;44.728;10.396;2023-05-18T08:14:40;100673.91;;;18.01;100.00
59053;BME280;44843;44.728;10.396;2023-05-18T08:17:06;100688.06;;;17.79;100.00
59053;BME280;44843;44.728;10.396;2023-05-18T08:19:31;100667.78;;;17.80;100.00
59053;BME280;44843;44.728;10.396;2023-05-18T08:21:56;100680.34;;;17.66;100.00
59053;BME280;44843;44.728;10.396;2023-05-18T08:24:21;100673.00;;;17.70;100.00
59053;BME280;44843;44.728;10.396;2023-05-18T08:26:47;100677.38;;;17.81;100.00
59053;BME280;44843;44.728;10.396;2023-05-18T08:29:12;100676.16;;;18.06;100.00
59053;BME280;44843;44.728;10.396;2023-05-18T08:31:38;100684.41;;;18.43;100.00
59053;BME280;44843;44.728;10.396;2023-05-18T08:34:03;100678.69;;;18.38;100.00
59053;BME280;44843;44.728;10.396;2023-05-18T08:36:29;100682.09;;;18.19;100.00
59053;BME280;44843;44.728;10.396;2023-05-18T08:38:55;100683.66;;;18.31;100.00
59053;BME280;44843;44.728;10.396;2023-05-18T08:43:50;100670.28;;;18.23;100.00
59053;BME280;44843;44.728;10.396;2023-05-18T08:46:20;100664.69;;;18.17;100.00
59053;BME280;44843;44.728;10.396;2023-05-18T08:48:49;100669.22;;;18.36;100.00
59053;BME280;44843;44.728;10.396;2023-05-18T08:51:16;100667.13;;;18.29;100.00
59053;BME280;44843;44.728;10.396;2023-05-18T08:53:44;100664.88;;;18.25;100.00
59053;BME280;44843;44.728;10.396;2023-05-18T08:56:11;100659.81;;;18.12;100.00
59053;BME280;44843;44.728;10.396;2023-05-18T08:58:40;100665.97;;;18.22;100.00
59053;BME280;44843;44.728;10.396;2023-05-18T09:01:07;100667.41;;;18.26;100.00
59053;BME280;44843;44.728;10.396;2023-05-18T09:03:33;100670.06;;;18.36;100.00
59053;BME280;44843;44.728;10.396;2023-05-18T09:05:59;100674.31;;;18.18;100.00
59053;BME280;44843;44.728;10.396;2023-05-18T09:08:25;100688.06;;;17.79;100.00
59053;BME280;44843;44.728;10.396;2023-05-18T09:10:50;100675.31;;;18.26;100.00
59053;BME280;44843;44.728;10.396;2023-05-18T09:13:15;100672.66;;;18.26;100.00
59053;BME280;44843;44.728;10.396;2023-05-18T09:15:43;100679.22;;;18.32;100.00
59053;BME280;44843;44.728;10.396;2023-05-18T09:18:08;100688.03;;;18.21;100.00
59053;BME280;44843;44.728;10.396;2023-05-18T09:20:33;100688.91;;;18.62;100.00
59053;BME280;44843;44.728;10.396;2023-05-18T09:22:59;100696.84;;;18.62;100.00
59053;BME280;44843;44.728;10.396;2023-05-18T09:25:24;100700.16;;;18.55;100.00
59053;BME280;44843;44.728;10.396;2023-05-18T09:27:51;100694.59;;;18.48;100.00
59053;BME280;44843;44.728;10.396;2023-05-18T09:30:17;100696.66;;;18.54;100.00
59053;BME280;44843;44.728;10.396;2023-05-18T09:32:43;100698.34;;;18.86;100.00
59053;BME280;44843;44.728;10.396;2023-05-18T09:35:11;100689.59;;;18.85;100.00
59053;BME280;44843;44.728;10.396;2023-05-18T09:37:36;100698.25;;;18.66;100.00
59053;BME280;44843;44.728;10.396;2023-05-18T09:40:05;100689.19;;;18.59;100.00
59053;BME280;44843;44.728;10.396;2023-05-18T09:42:38;100692.59;;;18.40;100.00
59053;BME280;44843;44.728;10.396;2023-05-18T09:45:13;100697.03;;;18.40;100.00
59053;BME280;44843;44.728;10.396;2023-05-18T09:47:39;100698.69;;;18.41;100.00
59053;BME280;44843;44.728;10.396;2023-05-18T09:50:04;100690.94;;;18.39;98.70
59053;BME280;44843;44.728;10.396;2023-05-18T09:52:30;100684.44;;;18.53;100.00
59053;BME280;44843;44.728;10.396;2023-05-18T09:54:58;100684.88;;;18.58;100.00
59053;BME280;44843;44.728;10.396;2023-05-18T09:57:24;100683.91;;;18.59;100.00
59053;BME280;44843;44.728;10.396;2023-05-18T09:59:54;100684.63;;;18.71;100.00
59053;BME280;44843;44.728;10.396;2023-05-18T10:02:20;100690.75;;;18.71;96.11
59053;BME280;44843;44.728;10.396;2023-05-18T10:04:49;100693.78;;;18.57;96.87
59053;BME280;44843;44.728;10.396;2023-05-18T10:07:15;100697.34;;;18.46;94.29
59053;BME280;44843;44.728;10.396;2023-05-18T10:09:41;100689.31;;;18.48;95.07
59053;BME280;44843;44.728;10.396;2023-05-18T10:12:13;100694.25;;;18.72;97.42
59053;BME280;44843;44.728;10.396;2023-05-18T10:14:42;100682.91;;;18.91;97.35
59053;BME280;44843;44.728;10.396;2023-05-18T10:17:09;100694.56;;;18.79;88.21
59053;BME280;44843;44.728;10.396;2023-05-18T10:19:35;100690.28;;;18.97;91.30
59053;BME280;44843;44.728;10.396;2023-05-18T10:22:01;100687.25;;;19.11;91.28
59053;BME280;44843;44.728;10.396;2023-05-18T10:24:27;100687.72;;;18.76;91.23
59053;BME280;44843;44.728;10.396;2023-05-18T10:26:53;100683.75;;;18.91;90.27
59053;BME280;44843;44.728;10.396;2023-05-18T10:29:21;100691.81;;;19.00;93.05
59053;BME280;44843;44.728;10.396;2023-05-18T10:31:47;100678.53;;;18.70;94.81
59053;BME280;44843;44.728;10.396;2023-05-18T10:34:14;100688.09;;;18.71;99.35
59053;BME280;44843;44.728;10.396;2023-05-18T10:36:40;100683.69;;;18.72;100.00
59053;BME280;44843;44.728;10.396;2023-05-18T10:39:06;100684.91;;;18.68;99.79
59053;BME280;44843;44.728;10.396;2023-05-18T10:41:34;100679.34;;;18.71;98.21
59053;BME280;44843;44.728;10.396;2023-05-18T10:44:00;100687.69;;;18.66;100.00
59053;BME280;44843;44.728;10.396;2023-05-18T10:46:28;100687.44;;;18.69;96.92
59053;BME280;44843;44.728;10.396;2023-05-18T10:48:53;100683.72;;;18.82;97.84
59053;BME280;44843;44.728;10.396;2023-05-18T10:51:20;100685.25;;;18.84;97.13
59053;BME280;44843;44.728;10.396;2023-05-18T10:53:45;100680.59;;;19.07;95.84
59053;BME280;44843;44.728;10.396;2023-05-18T10:56:12;100679.59;;;18.99;98.20
59053;BME280;44843;44.728;10.396;2023-05-18T10:58:39;100680.72;;;18.96;98.78
59053;BME280;44843;44.728;10.396;2023-05-18T11:01:06;100674.72;;;18.94;98.37
59053;BME280;44843;44.728;10.396;2023-05-18T11:03:33;100673.75;;;19.14;99.69
59053;BME280;44843;44.728;10.396;2023-05-18T11:08:29;100679.59;;;18.58;99.56
59053;BME280;44843;44.728;10.396;2023-05-18T11:11:04;100672.66;;;19.07;100.00
59053;BME280;44843;44.728;10.396;2023-05-18T11:13:31;100681.84;;;19.32;95.08
59053;BME280;44843;44.728;10.396;2023-05-18T11:18:37;100679.47;;;19.68;94.52
59053;BME280;44843;44.728;10.396;2023-05-18T11:21:02;100672.38;;;19.59;95.96
59053;BME280;44843;44.728;10.396;2023-05-18T11:23:31;100673.38;;;19.48;93.41
59053;BME280;44843;44.728;10.396;2023-05-18T11:25:59;100672.38;;;19.49;94.35
59053;BME280;44843;44.728;10.396;2023-05-18T11:28:27;100661.66;;;19.41;92.35
59053;BME280;44843;44.728;10.396;2023-05-18T11:30:53;100658.88;;;19.43;91.69
59053;BME280;44843;44.728;10.396;2023-05-18T11:33:28;100656.66;;;19.19;89.37
59053;BME280;44843;44.728;10.396;2023-05-18T11:36:01;100660.97;;;19.10;88.77
59053;BME280;44843;44.728;10.396;2023-05-18T11:38:47;100652.47;;;19.06;88.79
59053;BME280;44843;44.728;10.396;2023-05-18T11:41:39;100655.25;;;18.95;82.04
59053;BME280;44843;44.728;10.396;2023-05-18T11:46:39;100650.91;;;18.84;86.34
59053;BME280;44843;44.728;10.396;2023-05-18T11:49:08;100641.06;;;18.96;88.82
59053;BME280;44843;44.728;10.396;2023-05-18T11:51:54;100647.03;;;18.88;89.53
59053;BME280;44843;44.728;10.396;2023-05-18T11:54:24;100641.88;;;18.87;89.38
59053;BME280;44843;44.728;10.396;2023-05-18T11:56:51;100635.75;;;18.86;89.50
59053;BME280;44843;44.728;10.396;2023-05-18T11:59:29;100632.97;;;18.98;96.26
59053;BME280;44843;44.728;10.396;2023-05-18T12:01:57;100648.59;;;19.20;98.24
59053;BME280;44843;44.728;10.396;2023-05-18T12:04:24;100628.97;;;19.23;96.55
59053;BME280;44843;44.728;10.396;2023-05-18T12:06:51;100634.13;;;19.14;95.17
59053;BME280;44843;44.728;10.396;2023-05-18T12:09:17;100631.34;;;19.35;95.46
59053;BME280;44843;44.728;10.396;2023-05-18T12:11:44;100631.72;;;19.60;94.70
59053;BME280;44843;44.728;10.396;2023-05-18T12:14:10;100635.06;;;19.72;88.55
59053;BME280;44843;44.728;10.396;2023-05-18T12:16:36;100633.97;;;19.45;87.34
59053;BME280;44843;44.728;10.396;2023-05-18T12:19:03;100635.38;;;19.40;85.62
59053;BME280;44843;44.728;10.396;2023-05-18T12:21:28;100638.69;;;19.51;86.96
59053;BME280;44843;44.728;10.396;2023-05-18T12:23:58;100634.94;;;19.44;88.24
59053;BME280;44843;44.728;10.396;2023-05-18T12:26:24;100637.72;;;19.43;85.69
59053;BME280;44843;44.728;10.396;2023-05-18T12:28:59;100637.72;;;19.43;87.07
59053;BME280;44843;44.728;10.396;2023-05-18T12:31:26;100634.53;;;19.29;87.42
59053;BME280;44843;44.728;10.396;2023-05-18T12:33:54;100634.66;;;19.28;88.65
59053;BME280;44843;44.728;10.396;2023-05-18T12:36:20;100625.78;;;19.29;91.07
59053;BME280;44843;44.728;10.396;2023-05-18T12:38:52;100630.38;;;19.27;87.53
59053;BME280;44843;44.728;10.396;2023-05-18T12:41:24;100629.69;;;19.25;90.50
59053;BME280;44843;44.728;10.396;2023-05-18T12:43:54;100633.28;;;19.14;90.18
59053;BME280;44843;44.728;10.396;2023-05-18T12:46:21;100633.41;;;19.12;87.88
59053;BME280;44843;44.728;10.396;2023-05-18T12:48:58;100624.94;;;19.09;89.02